Time;durP1;ratioP1;P1;durP2;ratioP2;P2;SDS_P1;SDS_P2;PMS_P1;PMS_P2;Temp;Humidity;BMP_temperature;BMP_pressure;BME280_temperature;BME280_humidity;BME280_pressure;Samples;Min_cycle;Max_cycle;Signal;HPM_P1;HPM_P2
2021/12/11 00:02:20;;;;;;;214.50;65.10;;;;;;;-1.83;82.31;97581.44;105850;1316;22550;-76
2021/12/11 00:04:51;;;;;;;225.10;66.20;;;;;;;-1.85;82.33;97579.61;105741;1317;24219;-75
2021/12/11 00:07:20;;;;;;;241.10;64.60;;;;;;;-1.84;82.05;97580.79;105748;1317;22556;-76
2021/12/11 00:10:00;;;;;;;217.20;64.60;;;;;;;-1.79;82.09;97580.99;105774;1316;25498;-75
2021/12/11 00:12:34;;;;;;;236.80;67.30;;;;;;;-1.78;82.33;97589.11;105770;1316;22643;-75
2021/12/11 00:15:10;;;;;;;230.60;68.70;;;;;;;-1.79;82.53;97608.61;105765;1316;22563;-75
2021/12/11 00:17:37;;;;;;;274.00;73.70;;;;;;;-1.80;82.76;97604.91;105743;1315;22690;-75
2021/12/11 00:20:08;;;;;;;247.70;69.40;;;;;;;-1.80;82.70;97605.60;105789;1314;22680;-75
2021/12/11 00:22:35;;;;;;;239.80;71.10;;;;;;;-1.81;82.58;97608.88;105807;1315;22566;-75
2021/12/11 00:25:09;;;;;;;285.70;76.50;;;;;;;-1.82;82.44;97605.84;105770;1316;22642;-75
2021/12/11 00:27:39;;;;;;;262.40;71.00;;;;;;;-1.79;82.36;97607.75;105923;1316;25316;-76
2021/12/11 00:30:10;;;;;;;230.60;66.70;;;;;;;-1.75;82.47;97605.23;105737;1316;22883;-75
2021/12/11 00:32:38;;;;;;;243.50;69.40;;;;;;;-1.73;82.58;97601.92;105733;1317;22635;-76
2021/12/11 00:35:20;;;;;;;232.90;69.60;;;;;;;-1.72;82.65;97605.17;105729;1314;22619;-75
2021/12/11 00:37:49;;;;;;;250.00;77.20;;;;;;;-1.73;82.62;97610.81;105769;1317;22620;-75
2021/12/11 00:40:19;;;;;;;257.60;81.10;;;;;;;-1.74;82.32;97617.33;105767;1316;25070;-76
2021/12/11 00:42:51;;;;;;;216.70;74.70;;;;;;;-1.77;81.98;97615.56;105764;1317;22573;-75
2021/12/11 00:45:22;;;;;;;240.40;71.90;;;;;;;-1.83;81.95;97618.15;106075;1317;25517;-75
2021/12/11 00:48:15;;;;;;;216.20;68.10;;;;;;;-1.82;82.05;97618.96;105763;1316;22563;-75
2021/12/11 00:50:52;;;;;;;210.50;66.80;;;;;;;-1.79;82.29;97624.83;105765;1316;22668;-75
2021/12/11 00:53:24;;;;;;;217.40;71.10;;;;;;;-1.79;82.57;97634.58;105800;1310;22580;-75
2021/12/11 00:55:55;;;;;;;223.30;79.10;;;;;;;-1.80;82.74;97638.71;105764;1316;22639;-75
2021/12/11 00:58:29;;;;;;;222.20;74.60;;;;;;;-1.81;82.64;97646.06;105777;1316;23948;-75
2021/12/11 01:01:08;;;;;;;231.30;78.90;;;;;;;-1.83;82.53;97651.77;105801;1316;22587;-75
2021/12/11 01:03:34;;;;;;;240.60;76.90;;;;;;;-1.84;82.41;97658.61;105769;1316;24448;-75
2021/12/11 01:06:18;;;;;;;237.20;75.80;;;;;;;-1.80;82.20;97656.46;105776;1317;24303;-76
2021/12/11 01:08:56;;;;;;;232.40;81.40;;;;;;;-1.80;82.54;97664.83;105754;1317;23462;-75
2021/12/11 01:11:36;;;;;;;264.90;91.70;;;;;;;-1.82;82.85;97666.41;105736;1318;23463;-75
2021/12/11 01:14:15;;;;;;;241.50;86.80;;;;;;;-1.85;82.95;97668.21;105770;1318;25457;-75
2021/12/11 01:16:52;;;;;;;237.70;85.20;;;;;;;-1.85;82.84;97668.38;105733;1319;22738;-75
2021/12/11 01:19:21;;;;;;;244.80;82.60;;;;;;;-1.84;82.55;97663.23;105723;1318;25294;-76
2021/12/11 01:21:58;;;;;;;236.50;73.80;;;;;;;-1.85;82.36;97675.88;105718;1319;25281;-75
2021/12/11 01:24:44;;;;;;;241.20;77.80;;;;;;;-1.81;82.38;97688.58;105739;1317;22609;-75
2021/12/11 01:27:17;;;;;;;218.90;73.80;;;;;;;-1.78;82.42;97691.71;105756;1316;22629;-75
2021/12/11 01:29:46;;;;;;;242.80;84.80;;;;;;;-1.77;82.70;97697.30;105751;1316;22586;-75
2021/12/11 01:32:14;;;;;;;232.80;83.10;;;;;;;-1.78;82.77;97694.09;105744;1316;22655;-76
2021/12/11 01:34:43;;;;;;;263.10;86.70;;;;;;;-1.77;82.79;97688.09;105748;1317;22597;-75
2021/12/11 01:37:11;;;;;;;253.60;89.40;;;;;;;-1.77;82.68;97688.77;105767;1317;25456;-75
2021/12/11 01:39:39;;;;;;;237.40;80.10;;;;;;;-1.77;82.58;97692.36;105722;1317;24505;-75
2021/12/11 01:42:20;;;;;;;240.90;76.60;;;;;;;-1.76;82.49;97695.23;105761;1317;23517;-75
2021/12/11 01:44:50;;;;;;;227.50;76.30;;;;;;;-1.69;82.34;97692.63;105822;1316;22709;-75
2021/12/11 01:47:21;;;;;;;215.20;72.00;;;;;;;-1.67;82.38;97685.88;105788;1317;22640;-75
2021/12/11 01:49:53;;;;;;;206.60;70.90;;;;;;;-1.66;82.64;97689.62;105768;1317;22643;-75
2021/12/11 01:52:37;;;;;;;242.20;83.60;;;;;;;-1.67;82.78;97696.65;105814;1317;22726;-74
2021/12/11 01:55:32;;;;;;;208.60;73.30;;;;;;;-1.70;82.65;97700.87;105807;1317;23106;-75
2021/12/11 01:58:01;;;;;;;207.00;73.30;;;;;;;-1.74;82.49;97700.63;105786;1315;22644;-75
2021/12/11 02:00:40;;;;;;;285.80;96.70;;;;;;;-1.77;82.28;97703.46;105781;1314;22603;-75
2021/12/11 02:03:22;;;;;;;269.00;82.90;;;;;;;-1.77;82.21;97709.27;105824;1317;22557;-74
2021/12/11 02:05:50;;;;;;;251.30;80.50;;;;;;;-1.73;82.09;97713.92;105797;1314;22575;-75
2021/12/11 02:08:21;;;;;;;223.80;73.60;;;;;;;-1.72;82.40;97714.94;105769;1314;22612;-75
2021/12/11 02:10:53;;;;;;;195.70;66.00;;;;;;;-1.72;82.68;97720.55;105756;1317;22576;-75
2021/12/11 02:13:37;;;;;;;193.90;67.00;;;;;;;-1.75;82.87;97717.20;105755;1319;22578;-75
2021/12/11 02:16:07;;;;;;;186.60;65.00;;;;;;;-1.73;82.81;97721.08;105621;1319;22590;-75
2021/12/11 02:18:37;;;;;;;193.00;66.60;;;;;;;-1.73;82.66;97721.08;105722;1318;22586;-75
2021/12/11 02:21:46;;;;;;;196.60;63.90;;;;;;;-1.74;82.27;97726.58;105721;1319;22573;-75
2021/12/11 02:24:16;;;;;;;181.70;61.70;;;;;;;-1.72;82.23;97733.17;105657;1310;25277;-76
2021/12/11 02:26:43;;;;;;;183.80;65.00;;;;;;;-1.71;82.34;97735.89;105789;1317;22581;-75
2021/12/11 02:29:13;;;;;;;205.00;70.90;;;;;;;-1.74;82.52;97740.59;105787;1317;22631;-75
2021/12/11 02:32:04;;;;;;;210.10;72.40;;;;;;;-1.77;82.52;97748.54;105785;1317;22581;-76
2021/12/11 02:34:48;;;;;;;212.00;71.70;;;;;;;-1.80;82.45;97752.20;105787;1317;22586;-76
2021/12/11 02:37:23;;;;;;;203.60;71.00;;;;;;;-1.81;82.30;97754.64;105813;1317;22582;-76
2021/12/11 02:39:59;;;;;;;213.80;68.30;;;;;;;-1.82;82.18;97755.67;105793;1316;22703;-75
2021/12/11 02:42:35;;;;;;;203.30;68.00;;;;;;;-1.80;82.01;97761.41;105812;1316;22581;-76
2021/12/11 02:45:30;;;;;;;199.10;69.60;;;;;;;-1.78;82.17;97764.59;105774;1317;22683;-76
2021/12/11 02:48:08;;;;;;;210.90;72.80;;;;;;;-1.78;82.44;97768.02;105748;1317;24462;-76
2021/12/11 02:50:55;;;;;;;209.70;74.50;;;;;;;-1.76;82.54;97773.25;105758;1316;22939;-76
2021/12/11 02:53:36;;;;;;;221.30;77.70;;;;;;;-1.73;82.51;97776.73;105778;1316;22642;-76
2021/12/11 02:56:13;;;;;;;212.90;74.70;;;;;;;-1.72;82.37;97778.74;105807;1317;22560;-76
2021/12/11 02:58:44;;;;;;;212.00;68.30;;;;;;;-1.72;82.21;97779.61;105793;1317;25434;-76
2021/12/11 03:01:40;;;;;;;226.60;72.00;;;;;;;-1.67;82.08;97783.89;105795;1315;22697;-77
2021/12/11 03:04:20;;;;;;;217.50;70.90;;;;;;;-1.61;82.21;97791.73;105765;1317;22558;-75
2021/12/11 03:06:49;;;;;;;219.10;76.40;;;;;;;-1.60;82.47;97792.38;105828;1317;22712;-76
2021/12/11 03:09:27;;;;;;;214.10;74.10;;;;;;;-1.62;82.54;97795.70;105773;1317;22695;-76
2021/12/11 03:11:57;;;;;;;213.00;78.10;;;;;;;-1.62;82.46;97798.95;105702;1317;22580;-76
2021/12/11 03:14:26;;;;;;;215.60;76.40;;;;;;;-1.61;82.34;97799.95;105489;1317;22567;-76
2021/12/11 03:16:54;;;;;;;211.90;75.20;;;;;;;-1.62;82.06;97804.92;105593;1317;22597;-76
2021/12/11 03:19:25;;;;;;;216.90;72.20;;;;;;;-1.63;82.01;97803.92;105904;1319;26716;-74
2021/12/11 03:21:54;;;;;;;206.70;74.40;;;;;;;-1.59;81.91;97804.98;105705;1319;22776;-75
2021/12/11 03:24:22;;;;;;;221.60;82.20;;;;;;;-1.55;82.17;97806.92;105626;1320;24241;-74
2021/12/11 03:26:52;;;;;;;213.20;80.20;;;;;;;-1.52;82.31;97814.86;105764;1317;25226;-75
2021/12/11 03:29:19;;;;;;;221.20;82.20;;;;;;;-1.52;82.48;97817.42;105825;1316;22586;-75
2021/12/11 03:31:47;;;;;;;250.90;90.40;;;;;;;-1.53;82.47;97819.66;105816;1316;22593;-74
2021/12/11 03:34:19;;;;;;;212.30;81.20;;;;;;;-1.53;82.26;97819.15;105808;1317;22826;-74
2021/12/11 03:36:46;;;;;;;198.60;75.90;;;;;;;-1.57;82.16;97821.48;105784;1316;22587;-75
2021/12/11 03:39:24;;;;;;;251.80;85.80;;;;;;;-1.59;81.98;97818.81;105762;1317;22740;-75
2021/12/11 03:41:53;;;;;;;184.10;64.70;;;;;;;-1.55;81.99;97818.20;105836;1317;22582;-75
2021/12/11 03:44:21;;;;;;;184.50;69.00;;;;;;;-1.54;82.20;97821.06;105841;1317;22665;-75
2021/12/11 03:46:52;;;;;;;254.60;84.10;;;;;;;-1.54;82.51;97824.31;105778;1316;23048;-75
2021/12/11 03:49:22;;;;;;;284.80;92.00;;;;;;;-1.55;82.65;97825.38;105857;1316;22646;-75
2021/12/11 03:51:52;;;;;;;251.30;82.90;;;;;;;-1.56;82.59;97824.71;105785;1317;22559;-75
2021/12/11 03:54:27;;;;;;;274.00;92.00;;;;;;;-1.57;82.35;97825.94;105791;1317;22719;-75
2021/12/11 03:56:55;;;;;;;198.80;69.30;;;;;;;-1.58;82.23;97825.96;105786;1316;22645;-75
2021/12/11 03:59:23;;;;;;;180.70;62.70;;;;;;;-1.59;82.08;97830.25;105808;1317;22582;-75
2021/12/11 04:01:56;;;;;;;246.60;79.40;;;;;;;-1.54;81.99;97827.23;105818;1317;25201;-75
2021/12/11 04:04:30;;;;;;;748.90;243.50;;;;;;;-1.51;82.19;97829.32;105774;1316;25338;-75
2021/12/11 04:06:59;;;;;;;531.70;164.20;;;;;;;-1.50;82.65;97825.89;105807;1316;22580;-74
2021/12/11 04:09:28;;;;;;;389.40;117.90;;;;;;;-1.53;82.82;97823.42;105796;1315;22560;-74
2021/12/11 04:11:56;;;;;;;229.10;73.20;;;;;;;-1.53;82.66;97825.14;105822;1317;22607;-75
2021/12/11 04:14:28;;;;;;;214.80;68.90;;;;;;;-1.54;82.52;97823.45;105842;1316;23578;-75
2021/12/11 04:16:57;;;;;;;384.00;92.90;;;;;;;-1.56;82.23;97827.44;105815;1316;22625;-75
2021/12/11 04:19:25;;;;;;;418.80;117.20;;;;;;;-1.57;82.10;97832.07;105855;1314;26683;-75
2021/12/11 04:21:54;;;;;;;217.20;70.80;;;;;;;-1.53;82.10;97834.34;105667;1316;22637;-75
2021/12/11 04:24:25;;;;;;;196.20;68.70;;;;;;;-1.50;82.28;97831.36;105775;1314;22605;-75
2021/12/11 04:26:54;;;;;;;198.40;72.10;;;;;;;-1.49;82.60;97835.43;105640;1318;24269;-75
2021/12/11 04:29:22;;;;;;;190.00;71.40;;;;;;;-1.51;82.79;97828.81;105617;1319;22642;-75
2021/12/11 04:31:51;;;;;;;173.10;67.90;;;;;;;-1.50;82.73;97836.83;105677;1319;22652;-75
2021/12/11 04:34:21;;;;;;;154.00;60.70;;;;;;;-1.51;82.62;97838.20;105653;1317;22599;-75
2021/12/11 04:36:59;;;;;;;147.10;57.00;;;;;;;-1.51;82.47;97846.05;105748;1316;22628;-75
2021/12/11 04:39:33;;;;;;;200.60;71.20;;;;;;;-1.50;82.35;97851.67;105719;1319;22646;-75
2021/12/11 04:42:10;;;;;;;185.80;62.30;;;;;;;-1.43;82.20;97850.64;105749;1318;25341;-75
2021/12/11 04:44:43;;;;;;;142.10;52.40;;;;;;;-1.41;82.42;97854.14;105726;1317;22616;-75
2021/12/11 04:47:26;;;;;;;135.90;53.00;;;;;;;-1.43;82.70;97855.07;105765;1316;22587;-75
2021/12/11 04:49:59;;;;;;;201.90;69.50;;;;;;;-1.45;82.87;97859.41;105750;1316;22635;-75
2021/12/11 04:52:34;;;;;;;151.90;58.70;;;;;;;-1.47;82.68;97860.14;105936;1316;22575;-75
2021/12/11 05:09:20;;;;;;;186.00;68.20;;;;;;;-1.41;82.48;97887.45;106029;1316;22646;-76
2021/12/11 05:11:49;;;;;;;168.20;66.30;;;;;;;-1.45;82.31;97887.25;106098;1317;22710;-76
2021/12/11 05:14:18;;;;;;;174.70;66.70;;;;;;;-1.49;82.16;97894.00;106040;1319;22585;-75
2021/12/11 05:16:45;;;;;;;170.90;64.10;;;;;;;-1.50;81.99;97895.73;106018;1317;22699;-75
2021/12/11 05:19:13;;;;;;;166.50;63.80;;;;;;;-1.46;81.99;97893.75;106020;1316;22574;-75
2021/12/11 05:21:41;;;;;;;184.60;71.60;;;;;;;-1.44;82.22;97897.46;105997;1319;22596;-75
2021/12/11 05:24:09;;;;;;;170.60;64.80;;;;;;;-1.42;82.42;97900.29;106015;1317;25363;-74
2021/12/11 05:26:37;;;;;;;172.90;63.50;;;;;;;-1.44;82.53;97906.35;105820;1314;24321;-74
2021/12/11 05:29:05;;;;;;;173.60;66.10;;;;;;;-1.46;82.48;97907.75;106060;1317;22617;-74
2021/12/11 05:31:32;;;;;;;171.80;65.00;;;;;;;-1.47;82.47;97909.66;105827;1314;22599;-73
2021/12/11 05:34:00;;;;;;;176.20;66.00;;;;;;;-1.47;82.40;97913.44;105820;1315;23939;-75
2021/12/11 05:36:31;;;;;;;173.70;66.00;;;;;;;-1.46;82.22;97917.00;105822;1316;22689;-75
2021/12/11 05:39:00;;;;;;;181.80;64.10;;;;;;;-1.41;82.04;97922.98;105793;1317;22650;-76
2021/12/11 05:41:27;;;;;;;157.20;63.30;;;;;;;-1.38;82.19;97924.79;105846;1317;22635;-76
2021/12/11 05:43:55;;;;;;;152.50;57.90;;;;;;;-1.37;82.56;97928.19;105830;1315;22587;-74
2021/12/11 05:46:22;;;;;;;173.20;67.70;;;;;;;-1.39;82.65;97932.34;105815;1314;26279;-74
2021/12/11 05:48:51;;;;;;;193.50;72.50;;;;;;;-1.38;82.61;97935.88;105826;1316;22708;-74
2021/12/11 05:51:22;;;;;;;198.00;71.80;;;;;;;-1.39;82.33;97936.06;105829;1316;23377;-74
2021/12/11 05:53:59;;;;;;;174.70;68.60;;;;;;;-1.40;82.28;97936.11;105855;1316;22581;-74
2021/12/11 05:56:33;;;;;;;174.70;65.10;;;;;;;-1.41;82.30;97936.64;105856;1317;26901;-74
2021/12/11 05:59:00;;;;;;;167.80;64.40;;;;;;;-1.36;82.14;97942.30;105808;1314;22585;-74
2021/12/11 06:01:32;;;;;;;166.00;65.40;;;;;;;-1.30;82.19;97944.19;105822;1316;22609;-75
2021/12/11 06:04:04;;;;;;;152.20;62.30;;;;;;;-1.30;82.53;97944.02;105854;1317;22656;-75
2021/12/11 06:06:31;;;;;;;165.00;65.10;;;;;;;-1.32;82.60;97950.39;105844;1317;24441;-74
2021/12/11 06:08:59;;;;;;;199.70;80.30;;;;;;;-1.35;82.52;97952.00;105856;1316;22603;-74
2021/12/11 06:11:26;;;;;;;257.90;105.40;;;;;;;-1.36;82.40;97955.83;105866;1316;22625;-74
2021/12/11 06:13:53;;;;;;;171.60;72.60;;;;;;;-1.37;82.37;97956.02;105798;1317;25361;-74
2021/12/11 06:16:20;;;;;;;169.20;63.60;;;;;;;-1.37;82.20;97961.47;105747;1318;22749;-74
2021/12/11 06:18:48;;;;;;;161.70;65.10;;;;;;;-1.33;82.16;97965.61;105787;1319;22586;-75
2021/12/11 06:21:15;;;;;;;149.10;66.20;;;;;;;-1.29;82.22;97966.71;105741;1319;22589;-74
2021/12/11 06:23:44;;;;;;;152.10;68.60;;;;;;;-1.27;82.35;97966.67;105747;1318;24250;-74
2021/12/11 06:26:11;;;;;;;167.80;70.60;;;;;;;-1.30;82.57;97963.67;105814;1316;22616;-74
2021/12/11 06:28:40;;;;;;;178.40;70.20;;;;;;;-1.31;82.56;97965.55;105853;1316;22618;-74
2021/12/11 06:31:07;;;;;;;172.80;67.30;;;;;;;-1.31;82.57;97967.95;106204;1317;22579;-74
2021/12/11 06:33:34;;;;;;;175.70;69.00;;;;;;;-1.31;82.37;97970.51;105815;1317;22638;-74
2021/12/11 06:36:08;;;;;;;200.20;75.90;;;;;;;-1.31;82.28;97973.77;105811;1317;22582;-74
2021/12/11 06:38:38;;;;;;;209.20;76.30;;;;;;;-1.27;82.04;97978.61;105902;1316;22720;-74
2021/12/11 06:41:07;;;;;;;230.20;81.90;;;;;;;-1.25;82.30;97986.05;105853;1316;24040;-74
2021/12/11 06:43:35;;;;;;;229.10;86.00;;;;;;;-1.26;82.49;97986.60;105834;1317;22563;-74
2021/12/11 06:46:05;;;;;;;281.40;101.30;;;;;;;-1.28;82.71;97986.16;105813;1317;22589;-74
2021/12/11 06:48:32;;;;;;;335.40;112.60;;;;;;;-1.30;82.57;97991.85;105786;1317;24560;-74
2021/12/11 06:50:59;;;;;;;271.80;99.40;;;;;;;-1.31;82.41;97995.63;106127;1317;22595;-74
2021/12/11 06:53:33;;;;;;;244.60;89.30;;;;;;;-1.31;82.30;97997.52;105825;1317;22587;-74
2021/12/11 06:56:02;;;;;;;205.20;75.80;;;;;;;-1.31;82.20;97998.38;105847;1317;22582;-75
2021/12/11 06:58:30;;;;;;;203.30;75.70;;;;;;;-1.28;82.00;97999.30;105623;1317;25402;-75
2021/12/11 07:00:57;;;;;;;196.10;74.40;;;;;;;-1.28;82.11;98001.20;105806;1317;22695;-75
2021/12/11 07:03:24;;;;;;;183.50;70.30;;;;;;;-1.31;82.39;98005.18;105492;1316;416421;-75
2021/12/11 07:05:51;;;;;;;207.70;78.40;;;;;;;-1.31;82.52;98011.34;105874;1316;22640;-75
2021/12/11 07:08:18;;;;;;;209.80;80.50;;;;;;;-1.32;82.36;98018.02;105861;1316;22577;-75
2021/12/11 07:10:46;;;;;;;173.80;71.70;;;;;;;-1.33;82.30;98023.52;105830;1316;22587;-75
2021/12/11 07:13:14;;;;;;;157.20;65.30;;;;;;;-1.34;82.05;98031.41;105807;1316;22609;-75
2021/12/11 07:15:42;;;;;;;190.70;71.50;;;;;;;-1.34;82.00;98032.63;105638;1317;23148;-75
2021/12/11 07:18:10;;;;;;;202.10;77.80;;;;;;;-1.29;81.91;98036.91;105888;1316;25975;-75
2021/12/11 07:20:38;;;;;;;290.30;99.80;;;;;;;-1.25;82.08;98044.50;105861;1316;22640;-75
2021/12/11 07:23:06;;;;;;;392.30;127.20;;;;;;;-1.23;82.47;98046.15;106346;1316;22604;-75
2021/12/11 07:25:39;;;;;;;367.70;126.00;;;;;;;-1.23;82.65;98051.60;105806;1316;24391;-75
2021/12/11 07:28:08;;;;;;;286.50;106.00;;;;;;;-1.22;82.62;98060.63;105779;1318;25476;-75
2021/12/11 07:30:37;;;;;;;223.20;87.20;;;;;;;-1.20;82.40;98060.77;105846;1319;22682;-75
2021/12/11 07:33:06;;;;;;;182.40;76.40;;;;;;;-1.19;82.24;98062.10;105779;1318;22568;-75
2021/12/11 07:35:35;;;;;;;205.00;80.80;;;;;;;-1.17;82.09;98066.15;105761;1318;22579;-75
2021/12/11 07:38:03;;;;;;;196.70;81.30;;;;;;;-1.12;81.97;98074.73;105716;1319;22602;-75
2021/12/11 07:40:35;;;;;;;181.50;73.20;;;;;;;-1.07;82.10;98079.88;105764;1318;22557;-75
2021/12/11 07:43:04;;;;;;;165.70;65.20;;;;;;;-1.03;82.55;98083.02;105775;1319;24094;-76
2021/12/11 07:45:33;;;;;;;185.30;80.70;;;;;;;-1.02;82.63;98088.12;105784;1317;24473;-75
2021/12/11 07:48:01;;;;;;;206.50;86.00;;;;;;;-0.99;82.55;98097.45;105828;1317;22694;-75
2021/12/11 07:50:29;;;;;;;204.90;89.60;;;;;;;-0.97;82.44;98104.90;105792;1316;24518;-75
2021/12/11 07:52:56;;;;;;;213.10;92.00;;;;;;;-0.96;82.32;98103.50;105866;1316;22567;-74
2021/12/11 07:55:24;;;;;;;199.20;85.50;;;;;;;-0.92;81.89;98108.38;105966;1314;22655;-75
2021/12/11 07:57:51;;;;;;;188.80;86.00;;;;;;;-0.86;81.93;98106.98;105853;1316;24479;-75
2021/12/11 08:00:22;;;;;;;195.90;88.90;;;;;;;-0.81;82.14;98105.48;105833;1317;22709;-75
2021/12/11 08:02:50;;;;;;;172.70;76.80;;;;;;;-0.78;82.52;98115.14;105604;1317;22617;-74
2021/12/11 08:05:18;;;;;;;174.90;78.20;;;;;;;-0.78;82.72;98124.55;105807;1316;25703;-75
2021/12/11 08:07:45;;;;;;;199.40;86.30;;;;;;;-0.77;82.60;98127.94;105866;1316;22574;-75
2021/12/11 08:10:18;;;;;;;196.70;86.40;;;;;;;-0.73;82.43;98133.51;105885;1316;22731;-74
2021/12/11 08:12:47;;;;;;;173.30;77.50;;;;;;;-0.73;82.23;98134.70;105869;1316;22607;-74
2021/12/11 08:15:15;;;;;;;182.60;73.50;;;;;;;-0.72;82.15;98144.41;105810;1317;22574;-74
2021/12/11 08:17:43;;;;;;;183.40;77.40;;;;;;;-0.67;82.09;98147.33;105734;1317;22649;-75
2021/12/11 08:20:13;;;;;;;182.60;78.50;;;;;;;-0.62;82.28;98152.30;105751;1317;22867;-75
2021/12/11 08:22:40;;;;;;;170.40;75.30;;;;;;;-0.61;82.62;98155.53;105745;1319;22596;-75
2021/12/11 08:25:08;;;;;;;156.10;69.60;;;;;;;-0.62;82.80;98154.73;105710;1313;22637;-75
2021/12/11 08:27:36;;;;;;;144.80;63.00;;;;;;;-0.60;82.57;98145.92;105853;1317;22580;-75
2021/12/11 08:30:06;;;;;;;145.50;62.70;;;;;;;-0.60;82.37;98150.89;105882;1317;22560;-75
2021/12/11 08:32:34;;;;;;;133.50;58.50;;;;;;;-0.59;82.42;98151.70;105872;1317;22601;-74
2021/12/11 08:35:04;;;;;;;140.90;61.10;;;;;;;-0.54;82.35;98156.20;105937;1317;22619;-74
2021/12/11 08:37:31;;;;;;;132.10;57.00;;;;;;;-0.45;82.01;98162.77;105886;1315;25399;-74
2021/12/11 08:39:58;;;;;;;152.00;64.90;;;;;;;-0.39;82.26;98166.20;105833;1317;22644;-76
2021/12/11 08:42:28;;;;;;;134.90;57.40;;;;;;;-0.34;82.43;98174.09;105832;1317;22562;-74
2021/12/11 08:45:05;;;;;;;142.20;60.80;;;;;;;-0.29;82.59;98181.33;105857;1317;25347;-74
2021/12/11 08:47:36;;;;;;;133.90;60.40;;;;;;;-0.24;82.67;98193.99;105828;1316;22611;-75
2021/12/11 08:50:10;;;;;;;143.70;62.00;;;;;;;-0.18;82.56;98199.99;105801;1317;22579;-75
2021/12/11 08:52:42;;;;;;;146.70;63.30;;;;;;;-0.15;82.34;98206.05;105837;1315;22607;-76
2021/12/11 08:55:16;;;;;;;153.40;66.30;;;;;;;-0.10;82.29;98213.13;105633;1317;24566;-75
2021/12/11 08:57:43;;;;;;;141.00;62.70;;;;;;;-0.05;81.98;98216.36;106060;1317;22579;-75
2021/12/11 09:00:26;;;;;;;138.10;63.40;;;;;;;-0.02;82.23;98224.34;105895;1317;22571;-77
2021/12/11 09:03:00;;;;;;;143.80;68.00;;;;;;;-0.03;82.54;98233.62;105826;1317;22579;-77
2021/12/11 09:05:52;;;;;;;147.00;67.90;;;;;;;-0.04;82.43;98239.48;105877;1314;23931;-77
2021/12/11 09:08:27;;;;;;;155.50;68.40;;;;;;;-0.06;82.30;98243.45;105999;1317;22648;-75
2021/12/11 09:11:05;;;;;;;137.70;64.00;;;;;;;-0.06;82.17;98247.05;106104;1317;22577;-85
2021/12/11 09:13:46;;;;;;;137.70;64.00;;;;;;;-0.06;81.98;98242.25;106103;1316;22629;-75
2021/12/11 09:16:38;;;;;;;134.90;61.00;;;;;;;-0.04;81.70;98243.40;106082;1316;22593;-74
2021/12/11 09:19:14;;;;;;;122.50;58.60;;;;;;;0.05;81.66;98250.33;106122;1316;22602;-76
2021/12/11 09:22:16;;;;;;;121.00;53.10;;;;;;;0.13;81.88;98250.10;106112;1317;22612;-76
2021/12/11 09:24:55;;;;;;;114.20;53.10;;;;;;;0.14;82.04;98247.16;105883;1317;25310;-76
2021/12/11 09:27:32;;;;;;;98.00;47.30;;;;;;;0.15;81.94;98255.34;105917;1319;22641;-76
2021/12/11 09:30:06;;;;;;;99.90;46.80;;;;;;;0.18;81.70;98256.61;105925;1318;22581;-78
2021/12/11 09:32:45;;;;;;;107.50;49.60;;;;;;;0.21;81.55;98261.15;105772;1318;22684;-77
2021/12/11 09:35:32;;;;;;;104.90;49.80;;;;;;;0.23;81.49;98270.70;105830;1319;22643;-77
2021/12/11 09:38:06;;;;;;;162.20;71.70;;;;;;;0.27;81.29;98274.18;105849;1319;22638;-77
2021/12/11 09:40:39;;;;;;;180.70;77.50;;;;;;;0.33;81.17;98279.46;105933;1319;25456;-77
2021/12/11 09:43:05;;;;;;;143.90;65.40;;;;;;;0.37;81.20;98284.80;105904;1319;22664;-77
2021/12/11 09:45:40;;;;;;;137.10;63.90;;;;;;;0.36;81.14;98287.58;105952;1317;22593;-77
2021/12/11 09:48:17;;;;;;;138.40;62.60;;;;;;;0.33;80.88;98293.67;105973;1319;22661;-77
2021/12/11 09:50:57;;;;;;;137.60;66.80;;;;;;;0.31;80.87;98296.13;106080;1316;22582;-77
2021/12/11 09:53:33;;;;;;;135.10;61.90;;;;;;;0.31;80.77;98302.81;106105;1316;22579;-77
2021/12/11 09:56:03;;;;;;;115.10;52.00;;;;;;;0.31;80.50;98313.96;106128;1315;22642;-77
2021/12/11 09:58:34;;;;;;;143.80;67.00;;;;;;;0.28;79.98;98317.46;106164;1317;22575;-78
2021/12/11 10:01:22;;;;;;;151.20;71.90;;;;;;;0.27;79.87;98319.87;106138;1316;24361;-78
2021/12/11 10:03:58;;;;;;;128.80;55.30;;;;;;;0.29;79.80;98320.70;106137;1316;22582;-77
2021/12/11 10:09:34;;;;;;;115.60;52.60;;;;;;;0.31;80.34;98333.33;105812;1316;22646;-77
2021/12/11 10:12:24;;;;;;;142.20;60.90;;;;;;;0.27;80.24;98334.44;106142;1317;24447;-76
2021/12/11 10:15:00;;;;;;;96.50;43.70;;;;;;;0.25;79.64;98340.84;106147;1317;22730;-76
2021/12/11 10:17:37;;;;;;;92.80;40.60;;;;;;;0.23;79.69;98345.70;106041;1315;22617;-78
2021/12/11 10:20:20;;;;;;;109.90;53.80;;;;;;;0.23;79.31;98344.34;105872;1319;22582;-76
2021/12/11 10:22:49;;;;;;;100.40;44.20;;;;;;;0.20;78.64;98345.27;105992;1319;24224;-77
2021/12/11 10:25:21;;;;;;;117.90;52.40;;;;;;;0.18;78.50;98350.30;106008;1316;22582;-77
2021/12/11 10:27:48;;;;;;;97.00;43.20;;;;;;;0.17;78.12;98352.75;106123;1317;25271;-77
2021/12/11 10:30:20;;;;;;;76.30;39.30;;;;;;;0.15;78.51;98354.67;106124;1316;22579;-77
2021/12/11 10:32:48;;;;;;;108.50;46.50;;;;;;;0.20;78.62;98361.39;106114;1317;22581;-77
2021/12/11 10:35:20;;;;;;;126.40;49.60;;;;;;;0.24;79.08;98363.16;106125;1317;22642;-77
2021/12/11 10:37:47;;;;;;;90.80;40.80;;;;;;;0.23;79.30;98365.73;106147;1317;22597;-77
2021/12/11 10:40:24;;;;;;;67.70;33.10;;;;;;;0.23;79.11;98367.96;106124;1317;22582;-77
2021/12/11 10:42:55;;;;;;;86.70;39.00;;;;;;;0.21;78.68;98370.92;106108;1317;25369;-77
2021/12/11 10:45:24;;;;;;;116.00;47.60;;;;;;;0.20;78.55;98368.55;106163;1316;22786;-77
2021/12/11 10:47:55;;;;;;;196.20;75.40;;;;;;;0.20;78.42;98364.11;106130;1316;22577;-78
2021/12/11 10:50:26;;;;;;;260.20;88.00;;;;;;;0.19;78.27;98365.48;106117;1317;22578;-78
2021/12/11 10:52:53;;;;;;;257.90;80.60;;;;;;;0.20;78.34;98371.13;106168;1317;23042;-78
2021/12/11 10:55:23;;;;;;;172.20;53.90;;;;;;;0.19;77.66;98367.05;106115;1317;24145;-77
2021/12/11 10:57:56;;;;;;;147.00;46.50;;;;;;;0.17;77.68;98369.49;106112;1317;22759;-77
2021/12/11 11:00:33;;;;;;;86.90;33.10;;;;;;;0.20;77.78;98369.92;106151;1316;25675;-78
2021/12/11 11:03:01;;;;;;;51.10;22.80;;;;;;;0.25;78.37;98369.27;106172;1316;22640;-77
2021/12/11 11:05:30;;;;;;;115.20;40.80;;;;;;;0.27;78.60;98366.13;106119;1317;24300;-76
2021/12/11 11:07:57;;;;;;;92.40;36.00;;;;;;;0.24;78.27;98366.23;106150;1317;22705;-77
2021/12/11 11:10:33;;;;;;;104.50;38.10;;;;;;;0.24;78.33;98369.48;106052;1318;24319;-77
2021/12/11 11:13:03;;;;;;;70.00;29.40;;;;;;;0.25;77.57;98372.53;106069;1320;22566;-76
2021/12/11 11:15:32;;;;;;;54.80;24.60;;;;;;;0.21;77.26;98372.29;106051;1318;25226;-77
2021/12/11 11:17:59;;;;;;;44.90;20.80;;;;;;;0.18;77.13;98369.98;106048;1319;24307;-77
2021/12/11 11:20:33;;;;;;;37.40;17.90;;;;;;;0.18;76.86;98372.05;105822;1319;22585;-77
2021/12/11 11:23:03;;;;;;;27.70;14.00;;;;;;;0.16;76.52;98375.02;106056;1319;22585;-77
2021/12/11 11:25:35;;;;;;;30.70;15.90;;;;;;;0.14;76.59;98374.23;106136;1315;22594;-78
2021/12/11 11:28:06;;;;;;;50.10;24.70;;;;;;;0.13;76.44;98381.42;106160;1316;22585;-77
2021/12/11 11:30:38;;;;;;;45.60;22.40;;;;;;;0.18;76.66;98389.36;106086;1317;24796;-78
2021/12/11 11:33:08;;;;;;;38.60;20.20;;;;;;;0.23;77.14;98393.66;106111;1317;22662;-77
2021/12/11 11:35:42;;;;;;;36.50;18.00;;;;;;;0.28;77.60;98394.38;106109;1316;22629;-78
2021/12/11 11:38:20;;;;;;;28.40;14.90;;;;;;;0.27;77.57;98391.30;106145;1315;25376;-78
2021/12/11 11:40:53;;;;;;;35.40;19.30;;;;;;;0.30;76.99;98390.55;106141;1317;22575;-78
2021/12/11 11:43:22;;;;;;;35.70;17.90;;;;;;;0.30;77.00;98392.08;106148;1317;22578;-78
2021/12/11 11:45:52;;;;;;;33.70;16.80;;;;;;;0.29;76.60;98388.16;106144;1317;22567;-77